createdAt,value
2023-02-06T00:01:50.130Z,103282.00
2023-02-06T00:04:18.276Z,103280.08
2023-02-06T00:06:46.590Z,103275.52
2023-02-06T00:09:14.886Z,103272.52
2023-02-06T00:11:42.928Z,103278.10
2023-02-06T00:14:10.981Z,103280.48
2023-02-06T00:16:39.073Z,103284.08
2023-02-06T00:19:07.387Z,103284.92
2023-02-06T00:21:35.252Z,103271.02
2023-02-06T00:24:04.791Z,103269.27
2023-02-06T00:26:33.082Z,103265.24
2023-02-06T00:29:01.183Z,103267.54
2023-02-06T00:31:29.202Z,103271.45
2023-02-06T00:33:57.355Z,103269.38
2023-02-06T00:36:26.992Z,103268.14
2023-02-06T00:38:55.076Z,103271.50
2023-02-06T00:41:23.152Z,103271.35
2023-02-06T00:43:52.393Z,103263.30
2023-02-06T00:46:20.984Z,103262.21
2023-02-06T00:48:49.071Z,103269.73
2023-02-06T00:51:17.011Z,103275.48
2023-02-06T00:53:44.990Z,103276.86
2023-02-06T00:56:14.789Z,103271.65
2023-02-06T00:58:42.731Z,103273.21
2023-02-06T01:01:13.186Z,103274.08
2023-02-06T01:03:41.274Z,103273.05
2023-02-06T01:06:10.780Z,103272.17
2023-02-06T01:08:39.067Z,103266.59
2023-02-06T01:11:15.077Z,103269.17
2023-02-06T01:13:43.574Z,103266.02
2023-02-06T01:16:16.224Z,103259.19
2023-02-06T01:18:44.459Z,103249.87
2023-02-06T01:21:16.531Z,103261.21
2023-02-06T01:23:44.892Z,103263.96
2023-02-06T01:26:14.584Z,103261.67
2023-02-06T01:28:45.855Z,103263.21
2023-02-06T01:31:24.932Z,103259.13
2023-02-06T01:33:54.697Z,103263.66
2023-02-06T01:36:23.620Z,103275.57
2023-02-06T01:38:52.578Z,103272.59
2023-02-06T01:41:23.446Z,103267.30
2023-02-06T01:44:13.526Z,103265.16
2023-02-06T01:46:44.355Z,103263.20
2023-02-06T01:49:28.172Z,103265.29
2023-02-06T01:52:20.789Z,103262.48
2023-02-06T01:54:58.161Z,103258.96
2023-02-06T01:57:27.213Z,103255.84
2023-02-06T02:00:00.700Z,103250.28
2023-02-06T02:02:29.559Z,103251.56
2023-02-06T02:04:58.706Z,103254.91
2023-02-06T02:07:32.193Z,103253.53
2023-02-06T02:10:02.635Z,103242.81
2023-02-06T02:12:30.513Z,103240.52
2023-02-06T02:14:59.399Z,103241.23
2023-02-06T02:17:42.676Z,103237.41
2023-02-06T02:20:38.659Z,103235.64
2023-02-06T02:23:20.597Z,103230.30
2023-02-06T02:26:35.457Z,103221.96
2023-02-06T02:29:51.405Z,103220.70
2023-02-06T02:32:44.019Z,103218.39
2023-02-06T02:35:20.909Z,103202.08
2023-02-06T02:38:20.462Z,103199.98
2023-02-06T02:41:02.561Z,103197.89
2023-02-06T02:43:42.498Z,103198.40
2023-02-06T02:46:26.444Z,103196.66
2023-02-06T02:49:00.261Z,103192.64
2023-02-06T02:51:28.440Z,103193.10
2023-02-06T02:53:58.162Z,103191.66
2023-02-06T02:56:27.395Z,103186.80
2023-02-06T02:59:07.988Z,103182.11
2023-02-06T03:01:42.511Z,103180.16
2023-02-06T03:04:18.585Z,103179.23
2023-02-06T03:07:04.634Z,103171.61
2023-02-06T03:10:03.963Z,103169.30
2023-02-06T03:12:45.987Z,103165.09
2023-02-06T03:15:35.518Z,103162.79
2023-02-06T03:18:32.792Z,103163.91
2023-02-06T03:21:05.601Z,103164.38
2023-02-06T03:23:38.596Z,103168.59
2023-02-06T03:26:10.008Z,103171.56
2023-02-06T03:28:42.113Z,103173.83
2023-02-06T03:31:13.871Z,103175.41
2023-02-06T03:33:53.099Z,103178.76
2023-02-06T03:36:21.523Z,103177.73
2023-02-06T03:38:51.084Z,103172.48
2023-02-06T03:41:23.845Z,103169.15
2023-02-06T03:43:53.649Z,103162.50
2023-02-06T03:46:23.624Z,103165.64
2023-02-06T03:48:57.278Z,103164.40
2023-02-06T03:51:39.524Z,103169.11
2023-02-06T03:54:09.418Z,103169.48
2023-02-06T03:56:45.921Z,103165.97
2023-02-06T03:59:14.288Z,103170.52
2023-02-06T04:01:46.830Z,103165.21
2023-02-06T04:04:20.244Z,103166.09
2023-02-06T04:06:48.327Z,103162.92
2023-02-06T04:09:16.251Z,103160.44
2023-02-06T04:11:44.217Z,103155.52
2023-02-06T04:14:12.140Z,103161.83
2023-02-06T04:16:40.073Z,103170.25
2023-02-06T04:19:08.108Z,103173.56
2023-02-06T04:21:36.013Z,103174.71
2023-02-06T04:24:04.178Z,103177.30
2023-02-06T04:26:31.952Z,103178.48
2023-02-06T04:28:59.913Z,103181.66
2023-02-06T04:31:27.948Z,103185.45
2023-02-06T04:33:55.889Z,103181.53
2023-02-06T04:36:23.913Z,103183.08
2023-02-06T04:38:51.897Z,103182.52
2023-02-06T04:41:19.765Z,103178.48
2023-02-06T04:43:47.547Z,103177.43
2023-02-06T04:46:15.425Z,103179.00
2023-02-06T04:48:43.481Z,103176.55
2023-02-06T04:51:11.345Z,103176.39
2023-02-06T04:53:39.238Z,103165.25
2023-02-06T04:56:11.214Z,103155.00
2023-02-06T04:58:40.636Z,103157.48
2023-02-06T05:01:08.471Z,103163.30
2023-02-06T05:03:36.547Z,103167.15
2023-02-06T05:06:04.919Z,103165.34
2023-02-06T05:08:32.968Z,103166.13
2023-02-06T05:11:00.810Z,103166.64
2023-02-06T05:13:28.693Z,103160.55
2023-02-06T05:16:01.400Z,103157.05
2023-02-06T05:18:29.359Z,103159.84
2023-02-06T05:20:57.469Z,103166.62
2023-02-06T05:23:25.349Z,103166.70
2023-02-06T05:25:53.236Z,103165.73
2023-02-06T05:28:21.351Z,103158.67
2023-02-06T05:30:49.485Z,103154.07
2023-02-06T05:33:19.096Z,103155.61
2023-02-06T05:35:47.075Z,103162.81
2023-02-06T05:38:15.183Z,103162.52
2023-02-06T05:40:43.068Z,103160.30
2023-02-06T05:43:11.847Z,103158.30
2023-02-06T05:45:39.898Z,103159.58
2023-02-06T05:48:08.122Z,103161.55
2023-02-06T05:50:35.946Z,103153.38
2023-02-06T05:53:05.242Z,103156.67
2023-02-06T05:55:33.497Z,103160.97
2023-02-06T05:58:01.659Z,103160.91
2023-02-06T06:00:29.484Z,103167.36
2023-02-06T06:02:57.428Z,103167.66
2023-02-06T06:05:25.978Z,103164.63
2023-02-06T06:07:53.858Z,103160.41
2023-02-06T06:10:21.760Z,103168.64
2023-02-06T06:12:49.650Z,103179.02
2023-02-06T06:15:17.702Z,103184.38
2023-02-06T06:17:45.596Z,103189.16
2023-02-06T06:20:13.530Z,103191.65
2023-02-06T06:22:41.560Z,103201.63
2023-02-06T06:25:09.651Z,103204.38
2023-02-06T06:27:37.549Z,103208.91
2023-02-06T06:30:06.088Z,103211.36
2023-02-06T06:32:34.140Z,103212.21
2023-02-06T06:35:02.216Z,103220.63
2023-02-06T06:37:30.490Z,103221.26
2023-02-06T06:39:58.452Z,103219.17
2023-02-06T06:42:26.425Z,103221.73
2023-02-06T06:44:54.442Z,103222.03
2023-02-06T06:47:22.365Z,103227.20
2023-02-06T06:49:50.246Z,103225.59
2023-02-06T06:52:25.010Z,103223.25
2023-02-06T06:54:54.185Z,103222.14
2023-02-06T06:57:22.541Z,103230.84
2023-02-06T06:59:50.891Z,103237.35
2023-02-06T07:02:18.756Z,103239.02
2023-02-06T07:04:46.852Z,103241.27
2023-02-06T07:07:14.890Z,103238.59
2023-02-06T07:09:42.858Z,103237.33
2023-02-06T07:12:10.856Z,103244.65
2023-02-06T07:14:40.205Z,103243.88
2023-02-06T07:17:08.265Z,103236.77
2023-02-06T07:19:36.086Z,103236.13
2023-02-06T07:22:04.066Z,103236.59
2023-02-06T07:24:31.854Z,103241.83
2023-02-06T07:26:59.826Z,103245.05
2023-02-06T07:29:27.720Z,103245.50
2023-02-06T07:31:55.791Z,103244.63
2023-02-06T07:34:23.864Z,103256.02
2023-02-06T07:36:51.806Z,103262.54
2023-02-06T07:39:19.761Z,103267.12
2023-02-06T07:41:49.992Z,103271.56
2023-02-06T07:44:20.449Z,103273.85
2023-02-06T07:46:48.217Z,103277.40
2023-02-06T07:49:16.148Z,103273.08
2023-02-06T07:51:45.516Z,103272.33
2023-02-06T07:54:13.725Z,103270.73
2023-02-06T07:56:42.343Z,103270.73
2023-02-06T07:59:10.556Z,103269.77
2023-02-06T08:01:38.442Z,103267.06
2023-02-06T08:04:06.415Z,103263.59
2023-02-06T08:06:34.524Z,103255.48
2023-02-06T08:09:02.418Z,103258.52
2023-02-06T08:11:31.163Z,103253.98
2023-02-06T08:13:59.204Z,103248.98
2023-02-06T08:16:27.198Z,103247.41
2023-02-06T08:18:55.009Z,103241.70
2023-02-06T08:21:25.541Z,103246.01
2023-02-06T08:23:55.371Z,103239.91
2023-02-06T08:26:24.163Z,103245.20
2023-02-06T08:28:53.860Z,103245.67
2023-02-06T08:31:27.005Z,103236.73
2023-02-06T08:33:55.659Z,103234.92
2023-02-06T08:36:25.227Z,103234.54
2023-02-06T08:38:53.476Z,103233.94
2023-02-06T08:41:24.786Z,103236.79
2023-02-06T08:43:55.762Z,103242.12
2023-02-06T08:46:26.939Z,103242.27
2023-02-06T08:48:56.728Z,103238.42
2023-02-06T08:51:28.004Z,103240.62
2023-02-06T08:54:00.968Z,103245.38
2023-02-06T08:56:30.562Z,103250.70
2023-02-06T08:58:59.895Z,103253.33
2023-02-06T09:01:29.751Z,103256.55
2023-02-06T09:04:03.507Z,103259.69
2023-02-06T09:06:31.512Z,103261.67
2023-02-06T09:08:59.526Z,103267.02
2023-02-06T09:11:28.806Z,103266.68
2023-02-06T09:13:58.651Z,103268.48
2023-02-06T09:16:28.334Z,103266.61
2023-02-06T09:19:01.453Z,103266.95
2023-02-06T09:21:31.964Z,103263.86
2023-02-06T09:24:03.380Z,103260.27
2023-02-06T09:26:38.886Z,103258.56
2023-02-06T09:29:11.658Z,103253.77
2023-02-06T09:31:42.013Z,103244.79
2023-02-06T09:34:12.563Z,103243.15
2023-02-06T09:36:41.207Z,103240.02
2023-02-06T09:39:09.598Z,103237.23
2023-02-06T09:41:50.515Z,103245.86
2023-02-06T09:44:21.539Z,103260.26
2023-02-06T09:46:55.757Z,103266.15
2023-02-06T09:49:41.795Z,103263.77
2023-02-06T09:52:37.076Z,103267.17
2023-02-06T09:55:18.521Z,103268.61
2023-02-06T09:58:08.066Z,103269.38
2023-02-06T10:00:51.740Z,103271.85
2023-02-06T10:03:50.318Z,103269.27
2023-02-06T10:06:27.193Z,103274.67
2023-02-06T10:09:03.688Z,103275.48
2023-02-06T10:11:55.001Z,103290.69
2023-02-06T10:14:43.895Z,103288.43
2023-02-06T10:17:26.010Z,103279.77
2023-02-06T10:20:15.662Z,103275.31
2023-02-06T10:22:54.601Z,103264.69
2023-02-06T10:25:29.076Z,103257.09
2023-02-06T10:28:01.462Z,103250.92
2023-02-06T10:30:50.923Z,103250.16
2023-02-06T10:33:32.722Z,103243.09
2023-02-06T10:36:19.436Z,103241.81
2023-02-06T10:38:50.281Z,103237.84
2023-02-06T10:41:26.006Z,103239.92
2023-02-06T10:44:03.005Z,103238.64
2023-02-06T10:46:40.407Z,103235.94
2023-02-06T10:49:18.686Z,103238.29
2023-02-06T10:51:52.847Z,103239.09
2023-02-06T10:54:31.428Z,103242.10
2023-02-06T10:57:00.729Z,103240.98
2023-02-06T10:59:28.750Z,103239.56
2023-02-06T11:02:18.291Z,103227.91
2023-02-06T11:05:25.837Z,103226.68
2023-02-06T11:07:57.084Z,103225.55
2023-02-06T11:10:26.921Z,103227.83
2023-02-06T11:13:06.368Z,103227.04
2023-02-06T11:15:43.060Z,103230.19
2023-02-06T11:18:17.565Z,103225.90
2023-02-06T11:20:48.490Z,103228.30
2023-02-06T11:23:22.989Z,103227.30
2023-02-06T11:26:10.569Z,103227.86
2023-02-06T11:28:49.375Z,103227.02
2023-02-06T11:31:20.571Z,103232.25
2023-02-06T11:33:52.557Z,103237.39
2023-02-06T11:36:27.354Z,103238.30
2023-02-06T11:38:57.551Z,103237.54
2023-02-06T11:41:26.265Z,103244.64
2023-02-06T11:44:02.766Z,103250.14
2023-02-06T11:46:35.214Z,103258.55
2023-02-06T11:49:25.564Z,103258.20
2023-02-06T11:52:03.794Z,103254.89
2023-02-06T11:54:35.540Z,103252.02
2023-02-06T11:57:10.238Z,103257.55
2023-02-06T11:59:53.876Z,103253.17
2023-02-06T12:02:36.592Z,103253.09
2023-02-06T12:05:16.398Z,103252.29
2023-02-06T12:07:53.513Z,103249.67
2023-02-06T12:10:24.085Z,103248.80
2023-02-06T12:12:57.967Z,103247.20
2023-02-06T12:15:46.966Z,103245.33
2023-02-06T12:18:22.736Z,103243.68
2023-02-06T12:20:59.384Z,103243.33
2023-02-06T12:23:42.886Z,103236.52
2023-02-06T12:26:16.121Z,103232.85
2023-02-06T12:28:47.030Z,103232.38
2023-02-06T12:31:22.884Z,103230.76
2023-02-06T12:33:55.311Z,103223.34
2023-02-06T12:36:30.773Z,103223.02
2023-02-06T12:39:03.373Z,103216.81
2023-02-06T12:41:46.440Z,103214.48
2023-02-06T12:44:29.651Z,103212.91
2023-02-06T12:47:06.914Z,103209.87
2023-02-06T12:49:50.821Z,103208.17
2023-02-06T12:52:31.467Z,103202.86
2023-02-06T12:55:11.565Z,103203.59
2023-02-06T12:57:40.192Z,103201.00
2023-02-06T13:00:14.325Z,103198.79
2023-02-06T13:03:21.080Z,103203.64
2023-02-06T13:06:03.057Z,103206.35
2023-02-06T13:08:56.055Z,103208.98
2023-02-06T13:11:40.654Z,103208.10
2023-02-06T13:14:17.719Z,103206.75
2023-02-06T13:16:45.688Z,103208.04
2023-02-06T13:19:31.797Z,103212.40
2023-02-06T13:22:09.137Z,103219.67
2023-02-06T13:24:39.304Z,103221.30
2023-02-06T13:27:07.199Z,103223.81
2023-02-06T13:29:37.645Z,103226.58
2023-02-06T13:32:22.758Z,103225.34
2023-02-06T13:34:50.638Z,103231.77
2023-02-06T13:37:33.269Z,103233.98
2023-02-06T13:40:22.380Z,103231.95
2023-02-06T13:43:14.000Z,103231.12
2023-02-06T13:46:01.053Z,103231.40
2023-02-06T13:48:59.882Z,103231.03
2023-02-06T13:51:50.359Z,103230.02
2023-02-06T13:54:34.221Z,103228.66
2023-02-06T13:57:23.000Z,103227.65
2023-02-06T14:00:01.709Z,103229.33
2023-02-06T14:02:47.565Z,103232.71
2023-02-06T14:05:26.201Z,103240.35
2023-02-06T14:08:06.118Z,103244.97
2023-02-06T14:11:32.609Z,103245.55
2023-02-06T14:14:18.967Z,103246.55
2023-02-06T14:16:59.692Z,103249.64
2023-02-06T14:19:38.303Z,103245.72
2023-02-06T14:22:27.679Z,103246.02
2023-02-06T14:25:29.876Z,103248.15
2023-02-06T14:28:16.501Z,103250.04
2023-02-06T14:30:56.756Z,103257.80
2023-02-06T14:33:40.744Z,103258.73
2023-02-06T14:36:39.034Z,103261.98
2023-02-06T14:39:29.822Z,103265.79
2023-02-06T14:41:58.160Z,103278.55
2023-02-06T14:44:31.401Z,103282.68
2023-02-06T14:47:55.808Z,103285.31
2023-02-06T14:51:00.922Z,103291.67
2023-02-06T14:53:30.792Z,103290.17
2023-02-06T14:56:15.787Z,103294.21
2023-02-06T14:58:46.500Z,103296.41
2023-02-06T15:01:34.572Z,103299.65
2023-02-06T15:04:12.596Z,103298.17
2023-02-06T15:07:04.067Z,103299.56
2023-02-06T15:09:31.908Z,103313.41
2023-02-06T15:12:02.572Z,103311.64
2023-02-06T15:14:33.633Z,103309.96
2023-02-06T15:17:02.836Z,103313.73
2023-02-06T15:19:33.574Z,103317.21
2023-02-06T15:22:15.549Z,103322.16
2023-02-06T15:24:54.398Z,103322.45
2023-02-06T15:27:37.171Z,103328.09
2023-02-06T15:30:21.739Z,103329.27
2023-02-06T15:32:56.208Z,103333.13
2023-02-06T15:35:28.864Z,103333.64
2023-02-06T15:38:03.078Z,103330.29
2023-02-06T15:40:33.288Z,103328.56
2023-02-06T15:43:03.016Z,103332.71
2023-02-06T15:45:37.290Z,103331.10
2023-02-06T15:48:23.780Z,103333.16
2023-02-06T15:51:00.509Z,103338.70
2023-02-06T15:53:42.356Z,103339.50
2023-02-06T15:56:26.500Z,103347.23
2023-02-06T15:58:58.266Z,103348.14
2023-02-06T16:01:30.443Z,103351.39
2023-02-06T16:04:03.962Z,103351.48
2023-02-06T16:06:31.838Z,103361.92
2023-02-06T16:09:03.219Z,103363.50
2023-02-06T16:11:46.237Z,103364.67
2023-02-06T16:14:29.080Z,103358.85
2023-02-06T16:17:17.069Z,103363.11
2023-02-06T16:19:56.422Z,103363.20
2023-02-06T16:22:28.198Z,103367.92
2023-02-06T16:25:15.462Z,103368.94
2023-02-06T16:27:46.362Z,103371.02
2023-02-06T16:30:20.435Z,103374.80
2023-02-06T16:32:48.364Z,103377.17
2023-02-06T16:35:16.256Z,103378.60
2023-02-06T16:37:44.123Z,103378.78
2023-02-06T16:40:11.919Z,103386.52
2023-02-06T16:42:41.611Z,103391.39
2023-02-06T16:45:16.672Z,103399.48
2023-02-06T16:47:44.704Z,103402.79
2023-02-06T16:50:13.030Z,103402.20
2023-02-06T16:52:47.439Z,103392.27
2023-02-06T16:55:20.406Z,103392.89
2023-02-06T16:57:53.062Z,103394.58
2023-02-06T17:00:26.777Z,103392.00
2023-02-06T17:02:55.108Z,103397.63
2023-02-06T17:05:25.543Z,103396.66
2023-02-06T17:07:55.054Z,103397.40
2023-02-06T17:10:26.096Z,103406.08
2023-02-06T17:12:54.234Z,103411.21
2023-02-06T17:15:22.278Z,103407.44
2023-02-06T17:17:49.973Z,103405.40
2023-02-06T17:20:26.707Z,103409.53
2023-02-06T17:22:54.470Z,103416.29
2023-02-06T17:25:22.227Z,103416.02
2023-02-06T17:27:50.023Z,103414.84
2023-02-06T17:30:20.618Z,103411.69
2023-02-06T17:32:49.264Z,103406.30
2023-02-06T17:35:18.025Z,103400.36
2023-02-06T17:37:46.203Z,103397.58
2023-02-06T17:40:22.667Z,103396.56
2023-02-06T17:42:50.708Z,103399.92
2023-02-06T17:45:18.539Z,103401.71
2023-02-06T17:47:46.559Z,103402.80
2023-02-06T17:50:17.205Z,103398.83
2023-02-06T17:52:45.205Z,103392.04
2023-02-06T17:55:13.617Z,103394.38
2023-02-06T17:57:41.801Z,103396.88
2023-02-06T18:00:14.511Z,103396.23
2023-02-06T18:02:42.686Z,103396.94
2023-02-06T18:05:10.920Z,103399.94
2023-02-06T18:07:39.401Z,103402.75
2023-02-06T18:10:09.230Z,103412.06
2023-02-06T18:12:37.808Z,103420.36
2023-02-06T18:15:05.938Z,103423.20
2023-02-06T18:17:34.007Z,103432.52
2023-02-06T18:20:02.078Z,103441.86
2023-02-06T18:22:29.964Z,103445.08
2023-02-06T18:24:59.462Z,103447.39
2023-02-06T18:27:27.220Z,103447.60
2023-02-06T18:29:55.427Z,103441.83
2023-02-06T18:32:23.307Z,103450.95
2023-02-06T18:34:51.285Z,103452.55
2023-02-06T18:37:19.066Z,103453.11
2023-02-06T18:39:47.031Z,103448.58
2023-02-06T18:42:33.578Z,103448.59
2023-02-06T18:45:03.995Z,103442.65
2023-02-06T18:47:32.296Z,103443.02
2023-02-06T18:50:00.340Z,103445.85
2023-02-06T18:52:28.871Z,103447.60
2023-02-06T18:54:56.732Z,103444.83
2023-02-06T18:57:24.682Z,103449.38
2023-02-06T18:59:52.742Z,103449.94
2023-02-06T19:02:20.578Z,103453.12
2023-02-06T19:04:48.502Z,103460.81
2023-02-06T19:07:16.781Z,103466.79
2023-02-06T19:09:44.615Z,103461.35
2023-02-06T19:12:12.403Z,103460.83
2023-02-06T19:14:40.236Z,103460.13
2023-02-06T19:17:08.077Z,103462.40
2023-02-06T19:19:35.909Z,103458.52
2023-02-06T19:22:03.735Z,103449.08
2023-02-06T19:24:31.754Z,103458.38
2023-02-06T19:26:59.601Z,103456.11
2023-02-06T19:29:35.628Z,103454.55
2023-02-06T19:32:07.177Z,103441.98
2023-02-06T19:34:37.386Z,103440.95
2023-02-06T19:37:07.741Z,103422.92
2023-02-06T19:39:38.094Z,103420.14
2023-02-06T19:42:09.821Z,103416.14
2023-02-06T19:44:38.049Z,103416.50
2023-02-06T19:47:05.904Z,103417.90
2023-02-06T19:49:33.762Z,103432.42
2023-02-06T19:52:02.112Z,103438.73
2023-02-06T19:54:30.201Z,103444.20
2023-02-06T19:57:00.617Z,103456.66
2023-02-06T19:59:29.927Z,103472.23
2023-02-06T20:02:00.970Z,103467.16
2023-02-06T20:04:32.491Z,103466.48
2023-02-06T20:07:01.173Z,103473.30
2023-02-06T20:09:29.868Z,103472.08
2023-02-06T20:11:59.020Z,103467.88
2023-02-06T20:14:27.026Z,103467.33
2023-02-06T20:16:55.328Z,103468.73
2023-02-06T20:19:26.267Z,103469.78
2023-02-06T20:21:57.301Z,103467.34
2023-02-06T20:24:28.967Z,103470.14
2023-02-06T20:27:01.683Z,103480.48
2023-02-06T20:29:33.215Z,103484.16
2023-02-06T20:32:04.333Z,103487.84
2023-02-06T20:34:32.734Z,103490.30
2023-02-06T20:37:00.650Z,103490.46
2023-02-06T20:39:29.672Z,103488.38
2023-02-06T20:41:57.788Z,103479.10
2023-02-06T20:44:26.445Z,103483.30
2023-02-06T20:46:54.370Z,103483.30
2023-02-06T20:49:24.864Z,103483.12
2023-02-06T20:51:53.275Z,103483.13
2023-02-06T20:54:21.874Z,103487.16
2023-02-06T20:56:50.067Z,103492.22
2023-02-06T20:59:19.790Z,103492.92
2023-02-06T21:01:48.062Z,103496.24
2023-02-06T21:04:16.918Z,103493.78
2023-02-06T21:06:47.975Z,103485.75
2023-02-06T21:09:16.950Z,103477.00
2023-02-06T21:11:48.046Z,103463.00
2023-02-06T21:14:16.895Z,103461.25
2023-02-06T21:16:44.938Z,103458.83
2023-02-06T21:19:15.017Z,103459.33
2023-02-06T21:21:45.831Z,103453.20
2023-02-06T21:24:14.833Z,103453.20
2023-02-06T21:26:43.140Z,103455.47
2023-02-06T21:29:13.956Z,103461.05
2023-02-06T21:31:42.236Z,103467.88
2023-02-06T21:34:21.906Z,103471.02
2023-02-06T21:36:50.302Z,103475.38
2023-02-06T21:39:21.121Z,103476.06
2023-02-06T21:41:53.828Z,103478.50
2023-02-06T21:44:24.127Z,103486.52
2023-02-06T21:46:52.833Z,103490.86
2023-02-06T21:49:21.192Z,103492.09
2023-02-06T21:51:53.501Z,103487.36
2023-02-06T21:54:22.507Z,103481.06
2023-02-06T21:56:51.446Z,103481.41
2023-02-06T21:59:19.207Z,103482.45
2023-02-06T22:01:47.012Z,103482.78
2023-02-06T22:04:14.848Z,103490.99
2023-02-06T22:06:43.695Z,103493.97
2023-02-06T22:09:16.357Z,103484.73
2023-02-06T22:11:46.094Z,103488.38
2023-02-06T22:14:17.056Z,103492.75
2023-02-06T22:16:48.286Z,103490.99
2023-02-06T22:19:16.712Z,103501.30
2023-02-06T22:21:44.604Z,103506.70
2023-02-06T22:24:12.654Z,103511.61
2023-02-06T22:26:41.605Z,103512.83
2023-02-06T22:29:17.428Z,103515.09
2023-02-06T22:31:45.696Z,103517.53
2023-02-06T22:34:19.417Z,103521.19
2023-02-06T22:36:50.644Z,103522.21
2023-02-06T22:39:18.942Z,103527.42
2023-02-06T22:41:47.242Z,103535.61
2023-02-06T22:44:17.023Z,103544.84
2023-02-06T22:46:48.785Z,103549.35
2023-02-06T22:49:17.936Z,103551.96
2023-02-06T22:51:46.225Z,103556.52
2023-02-06T22:54:14.714Z,103555.30
2023-02-06T22:56:43.575Z,103556.89
2023-02-06T22:59:22.330Z,103555.35
2023-02-06T23:01:54.094Z,103553.08
2023-02-06T23:04:30.017Z,103556.73
2023-02-06T23:06:58.116Z,103553.42
2023-02-06T23:09:29.133Z,103544.14
2023-02-06T23:12:01.164Z,103538.17
2023-02-06T23:14:31.187Z,103532.56
2023-02-06T23:17:00.754Z,103530.28
2023-02-06T23:19:29.831Z,103530.28
2023-02-06T23:21:57.723Z,103524.36
2023-02-06T23:24:25.634Z,103526.46
2023-02-06T23:26:54.453Z,103526.48
2023-02-06T23:29:23.939Z,103527.19
2023-02-06T23:31:51.964Z,103529.65
2023-02-06T23:34:23.667Z,103528.21
2023-02-06T23:36:52.073Z,103528.20
2023-02-06T23:39:19.957Z,103538.13
2023-02-06T23:41:47.815Z,103539.15
2023-02-06T23:44:15.738Z,103539.65
2023-02-06T23:46:43.628Z,103536.84
2023-02-06T23:49:11.885Z,103535.42
2023-02-06T23:51:39.761Z,103537.30
2023-02-06T23:54:09.008Z,103539.54
2023-02-06T23:56:37.353Z,103541.66
2023-02-06T23:59:06.735Z,103550.05
